Time;durP1;ratioP1;P1;durP2;ratioP2;P2;SDS_P1;SDS_P2;PMS_P1;PMS_P2;Temp;Humidity;BMP_temperature;BMP_pressure;BME280_temperature;BME280_humidity;BME280_pressure;Samples;Min_cycle;Max_cycle;Signal;HPM_P1;HPM_P2
2023/10/01 00:58:11;;;;;;;12.38;5.35;;;10.20;99.90;;;;;;6142426;22;94675;-80
2023/10/01 01:00:37;;;;;;;8.63;4.32;;;10.20;99.90;;;;;;6156792;22;92067;-79
2023/10/01 01:03:18;;;;;;;9.23;5.07;;;10.20;99.90;;;;;;6154167;22;93118;-79
2023/10/01 01:08:38;;;;;;;14.43;5.05;;;10.20;99.90;;;;;;6156316;22;92836;-79
2023/10/01 01:11:04;;;;;;;10.07;5.07;;;10.20;99.90;;;;;;6177590;22;92277;-79
2023/10/01 01:13:30;;;;;;;9.82;4.28;;;10.20;99.90;;;;;;6152856;22;92421;-80
2023/10/01 01:15:57;;;;;;;10.38;5.22;;;10.20;99.90;;;;;;6152167;22;93523;-79
2023/10/01 01:18:27;;;;;;;9.57;5.00;;;10.20;99.90;;;;;;6151648;22;94932;-79
2023/10/01 01:21:05;;;;;;;7.10;4.18;;;10.20;99.90;;;;;;6152405;22;91909;-79
2023/10/01 01:23:31;;;;;;;7.88;4.57;;;10.20;99.90;;;;;;6154062;22;92723;-79
2023/10/01 01:25:57;;;;;;;9.20;5.25;;;10.10;99.90;;;;;;6155807;22;92581;-79
2023/10/01 01:28:27;;;;;;;8.13;5.30;;;10.20;99.90;;;;;;6175949;22;96397;-79
2023/10/01 01:31:17;;;;;;;10.18;4.70;;;10.20;99.90;;;;;;6178169;22;92390;-77
2023/10/01 01:33:52;;;;;;;9.18;5.47;;;10.20;99.90;;;;;;6147616;22;92614;-79
2023/10/01 01:36:19;;;;;;;8.98;5.00;;;10.10;99.90;;;;;;6176499;22;95121;-79
2023/10/01 01:38:54;;;;;;;11.35;4.57;;;10.20;99.90;;;;;;6151019;22;94352;-79
2023/10/01 01:41:28;;;;;;;11.10;4.57;;;10.20;99.90;;;;;;6179104;22;92512;-79
2023/10/01 01:43:54;;;;;;;13.02;5.28;;;10.20;99.90;;;;;;6177030;22;92750;-79
2023/10/01 01:46:19;;;;;;;7.32;4.57;;;10.10;99.90;;;;;;6153154;22;92304;-78
2023/10/01 01:48:52;;;;;;;8.60;4.40;;;10.10;99.90;;;;;;6152655;22;94378;-79
2023/10/01 01:51:20;;;;;;;9.55;5.05;;;10.10;99.90;;;;;;6152739;22;92627;-79
2023/10/01 01:53:50;;;;;;;8.55;4.47;;;10.10;99.90;;;;;;6149474;22;93303;-78
2023/10/01 01:56:19;;;;;;;13.05;4.75;;;10.10;99.90;;;;;;6153047;22;94579;-79
2023/10/01 01:58:47;;;;;;;11.95;4.90;;;10.10;99.90;;;;;;6152175;22;92380;-79
2023/10/01 02:03:40;;;;;;;8.57;4.82;;;10.10;99.90;;;;;;6150484;22;94952;-80
2023/10/01 02:06:08;;;;;;;9.50;4.30;;;10.10;99.90;;;;;;6148284;22;96495;-79
2023/10/01 02:08:49;;;;;;;9.50;4.53;;;10.10;99.90;;;;;;6151120;22;93059;-78
2023/10/01 02:11:20;;;;;;;11.00;4.68;;;10.10;99.90;;;;;;6180017;22;91936;-79
2023/10/01 02:13:54;;;;;;;8.48;4.43;;;10.10;99.90;;;;;;6178423;22;92890;-79
2023/10/01 02:19:18;;;;;;;10.20;4.22;;;10.10;99.90;;;;;;6181295;22;93932;-79
2023/10/01 02:21:59;;;;;;;8.88;4.32;;;10.20;99.90;;;;;;6180195;22;92221;-78
2023/10/01 02:27:18;;;;;;;9.68;4.53;;;10.20;99.90;;;;;;6180979;22;92578;-78
2023/10/01 02:32:29;;;;;;;11.27;4.90;;;10.20;99.90;;;;;;6183833;22;92451;-78
2023/10/01 02:34:57;;;;;;;11.57;5.55;;;10.20;99.90;;;;;;6183950;22;92085;-80
2023/10/01 02:37:29;;;;;;;8.43;4.70;;;10.20;99.90;;;;;;6192761;22;96385;-78
2023/10/01 02:39:59;;;;;;;10.20;4.53;;;10.20;99.90;;;;;;6183102;22;93002;-78
2023/10/01 02:42:28;;;;;;;11.57;3.97;;;10.30;99.90;;;;;;6181834;22;92351;-78
2023/10/01 02:44:54;;;;;;;12.65;4.40;;;10.30;99.90;;;;;;6181147;22;93852;-78
2023/10/01 02:47:20;;;;;;;9.13;4.53;;;10.30;99.90;;;;;;6179985;22;97399;-78
2023/10/01 02:49:52;;;;;;;8.20;3.90;;;10.40;99.90;;;;;;6180061;22;93208;-78
2023/10/01 02:52:21;;;;;;;8.73;3.45;;;10.40;99.90;;;;;;6180339;22;92845;-79
2023/10/01 02:54:53;;;;;;;12.18;4.72;;;10.40;99.90;;;;;;6179183;22;92660;-79
2023/10/01 02:57:26;;;;;;;8.27;4.30;;;10.40;99.90;;;;;;6181786;22;93517;-78
2023/10/01 03:00:20;;;;;;;7.63;3.65;;;10.40;99.90;;;;;;6205027;22;94957;-78
2023/10/01 03:02:51;;;;;;;8.65;3.78;;;10.40;99.90;;;;;;6181908;22;91858;-79
2023/10/01 03:05:28;;;;;;;11.50;4.65;;;10.50;99.90;;;;;;6183703;22;92376;-78
2023/10/01 03:07:55;;;;;;;10.63;4.50;;;10.50;99.90;;;;;;6181008;22;93654;-78
2023/10/01 03:10:27;;;;;;;13.07;4.78;;;10.50;99.90;;;;;;6180728;22;93269;-78
2023/10/01 03:12:55;;;;;;;8.57;4.80;;;10.50;99.90;;;;;;6180235;22;92473;-78
2023/10/01 03:15:24;;;;;;;10.15;4.22;;;10.50;99.90;;;;;;6179591;22;92459;-78
2023/10/01 03:18:45;;;;;;;8.32;4.53;;;10.50;99.90;;;;;;6180164;22;93301;-78
2023/10/01 03:26:08;;;;;;;10.25;4.72;;;10.60;99.90;;;;;;6178083;22;92895;-78
2023/10/01 03:31:23;;;;;;;9.63;4.18;;;10.60;99.90;;;;;;6180565;22;92603;-78
2023/10/01 03:33:53;;;;;;;13.10;4.82;;;10.60;99.90;;;;;;6180474;22;92431;-78
2023/10/01 03:36:32;;;;;;;10.52;4.80;;;10.70;99.90;;;;;;6179108;22;93850;-78
2023/10/01 03:39:25;;;;;;;10.43;4.65;;;10.60;99.90;;;;;;6179337;22;95398;-78
2023/10/01 03:41:52;;;;;;;12.75;4.45;;;10.70;99.90;;;;;;6180742;22;93119;-78
2023/10/01 03:44:59;;;;;;;10.45;4.97;;;10.70;99.90;;;;;;6181844;22;92445;-79
2023/10/01 03:47:08;;;;;;;11.07;4.78;;;10.70;99.90;;;;;;6181742;22;93008;-78
2023/10/01 03:49:40;;;;;;;10.75;5.07;;;10.70;99.90;;;;;;6179447;22;95049;-78
2023/10/01 03:52:09;;;;;;;12.10;4.97;;;10.70;99.90;;;;;;6180917;22;93226;-79
2023/10/01 03:57:19;;;;;;;9.80;4.70;;;10.70;99.90;;;;;;6182054;22;92475;-78
2023/10/01 03:59:52;;;;;;;13.38;6.00;;;10.70;99.90;;;;;;6179789;22;96305;-78
2023/10/01 04:05:21;;;;;;;11.90;4.75;;;10.70;99.90;;;;;;6182309;22;93013;-78
2023/10/01 04:07:47;;;;;;;11.68;4.53;;;10.80;99.90;;;;;;6178794;22;92791;-79
2023/10/01 04:10:14;;;;;;;16.50;5.20;;;10.80;99.90;;;;;;6180131;22;93778;-79
2023/10/01 04:13:12;;;;;;;11.25;5.32;;;10.80;99.90;;;;;;6184796;22;93389;-78
2023/10/01 04:15:43;;;;;;;11.13;5.28;;;10.80;99.90;;;;;;6179440;22;93280;-78
2023/10/01 04:20:47;;;;;;;9.80;4.38;;;10.80;99.90;;;;;;6182984;22;92294;-78
2023/10/01 04:23:29;;;;;;;11.10;5.20;;;10.80;99.90;;;;;;6181301;22;96552;-78
2023/10/01 04:26:05;;;;;;;17.70;5.20;;;10.80;99.90;;;;;;6181614;22;92375;-79
2023/10/01 04:28:37;;;;;;;12.93;4.88;;;10.90;99.90;;;;;;6179328;22;93482;-78
2023/10/01 04:31:10;;;;;;;10.55;4.63;;;10.90;99.90;;;;;;6179825;22;96564;-78
2023/10/01 04:33:37;;;;;;;9.85;4.47;;;10.90;99.90;;;;;;6179677;22;96655;-78
2023/10/01 04:36:10;;;;;;;12.30;4.55;;;10.90;99.90;;;;;;6194942;22;92327;-78
2023/10/01 04:38:36;;;;;;;12.88;5.00;;;10.80;99.90;;;;;;6180464;22;92195;-78
2023/10/01 04:41:07;;;;;;;11.10;4.93;;;10.80;99.90;;;;;;6181128;22;92767;-78
2023/10/01 04:43:36;;;;;;;8.60;4.07;;;10.80;99.90;;;;;;6205590;22;96830;-78
2023/10/01 04:46:04;;;;;;;9.68;4.22;;;10.80;99.90;;;;;;6179623;22;91567;-78
2023/10/01 04:48:29;;;;;;;10.23;4.38;;;10.80;99.90;;;;;;6178871;22;92270;-78
2023/10/01 04:50:55;;;;;;;10.65;4.32;;;10.80;99.90;;;;;;6179591;22;93796;-78
2023/10/01 04:53:22;;;;;;;8.68;3.83;;;10.80;99.90;;;;;;6180573;22;94371;-77
2023/10/01 04:56:05;;;;;;;7.63;4.10;;;10.70;99.90;;;;;;6181016;22;92493;-78
2023/10/01 04:58:41;;;;;;;11.17;3.80;;;10.70;99.90;;;;;;6181526;22;92703;-79
2023/10/01 05:01:11;;;;;;;8.23;4.18;;;10.70;99.90;;;;;;6178988;22;96630;-79
2023/10/01 05:03:40;;;;;;;7.03;4.00;;;10.60;99.90;;;;;;6181280;22;93248;-78
2023/10/01 05:06:19;;;;;;;9.50;3.67;;;10.60;99.90;;;;;;6179974;22;92833;-78
2023/10/01 05:08:49;;;;;;;8.73;3.97;;;10.60;99.90;;;;;;6181915;22;92136;-78
2023/10/01 05:11:21;;;;;;;7.28;3.65;;;10.60;99.90;;;;;;6207500;22;95869;-78
2023/10/01 05:13:47;;;;;;;9.05;3.53;;;10.60;99.90;;;;;;6180148;22;95279;-78
2023/10/01 05:16:18;;;;;;;10.50;3.58;;;10.60;99.90;;;;;;6181900;22;92510;-79
2023/10/01 05:18:45;;;;;;;8.73;4.00;;;10.60;99.90;;;;;;6179518;22;93456;-78
2023/10/01 05:21:12;;;;;;;8.90;3.75;;;10.60;99.90;;;;;;6180297;22;95028;-79
2023/10/01 05:23:41;;;;;;;14.65;4.75;;;10.50;99.90;;;;;;6181090;22;93341;-77
2023/10/01 05:26:08;;;;;;;14.48;4.50;;;10.50;99.90;;;;;;6179004;22;92327;-78
2023/10/01 05:28:42;;;;;;;15.05;4.80;;;10.50;99.90;;;;;;6179354;22;92969;-78
2023/10/01 05:31:12;;;;;;;12.65;5.13;;;10.50;99.90;;;;;;6204770;22;96677;-77
2023/10/01 05:33:45;;;;;;;9.77;4.78;;;10.50;99.90;;;;;;6179527;22;96034;-78
2023/10/01 05:36:13;;;;;;;10.30;4.53;;;10.50;99.90;;;;;;6179917;22;91702;-78
2023/10/01 05:38:40;;;;;;;11.00;4.97;;;10.50;99.90;;;;;;6180703;22;92208;-78
2023/10/01 05:41:13;;;;;;;9.82;4.70;;;10.50;99.90;;;;;;6181347;22;93032;-78
2023/10/01 05:43:51;;;;;;;9.05;4.60;;;10.50;99.90;;;;;;6180743;22;93462;-78
2023/10/01 05:46:18;;;;;;;9.65;4.85;;;10.50;99.90;;;;;;6179923;22;94070;-78
2023/10/01 05:48:47;;;;;;;16.00;4.55;;;10.50;99.90;;;;;;6206103;22;92726;-79
2023/10/01 05:51:18;;;;;;;13.57;4.50;;;10.50;99.90;;;;;;6181752;22;93117;-78
2023/10/01 05:53:50;;;;;;;10.27;4.50;;;10.50;99.90;;;;;;6180246;22;96103;-78
2023/10/01 05:56:19;;;;;;;11.13;4.97;;;10.50;99.90;;;;;;6182490;22;92460;-79
2023/10/01 05:58:44;;;;;;;9.82;4.57;;;10.50;99.90;;;;;;6180925;22;92721;-79
2023/10/01 06:01:14;;;;;;;10.23;4.38;;;10.40;99.90;;;;;;6206701;22;95178;-79
2023/10/01 06:03:44;;;;;;;8.90;3.80;;;10.40;99.90;;;;;;6180685;22;94954;-79
2023/10/01 06:06:25;;;;;;;8.70;3.90;;;10.40;99.90;;;;;;6183579;22;92108;-79
2023/10/01 06:08:59;;;;;;;11.77;4.93;;;10.40;99.90;;;;;;6181595;22;93643;-79
2023/10/01 06:11:38;;;;;;;9.38;4.43;;;10.40;99.90;;;;;;6183163;22;93469;-79
2023/10/01 06:14:05;;;;;;;8.95;4.07;;;10.50;99.90;;;;;;6183411;22;93497;-79
2023/10/01 06:16:37;;;;;;;11.77;4.65;;;10.50;99.90;;;;;;6182208;22;92588;-78
2023/10/01 06:19:04;;;;;;;9.88;4.38;;;10.50;99.90;;;;;;6179681;22;92587;-78
2023/10/01 06:21:33;;;;;;;10.40;4.43;;;10.60;99.90;;;;;;6184235;22;96766;-80
2023/10/01 06:24:04;;;;;;;10.98;4.85;;;10.60;99.90;;;;;;6188114;22;92182;-79
2023/10/01 06:26:37;;;;;;;14.10;5.82;;;10.60;99.90;;;;;;6188834;22;91884;-80
2023/10/01 06:29:07;;;;;;;16.35;5.05;;;10.70;99.90;;;;;;6183675;22;92609;-79
2023/10/01 06:34:23;;;;;;;12.75;4.63;;;10.80;99.90;;;;;;6186023;22;93185;-79
2023/10/01 06:37:07;;;;;;;9.98;4.90;;;11.00;99.90;;;;;;6181482;22;92251;-78
2023/10/01 06:39:35;;;;;;;13.23;5.00;;;11.00;99.90;;;;;;6205894;22;92160;-78
2023/10/01 06:42:18;;;;;;;21.52;5.72;;;11.10;99.90;;;;;;6180659;22;94014;-78
2023/10/01 06:44:52;;;;;;;11.65;5.63;;;11.20;99.90;;;;;;6182527;22;93304;-78
2023/10/01 06:50:16;;;;;;;16.38;6.47;;;11.30;99.90;;;;;;6195438;22;92196;-82
2023/10/01 06:52:42;;;;;;;16.17;6.15;;;11.50;99.90;;;;;;6190265;22;92800;-81
2023/10/01 06:55:25;;;;;;;17.50;7.18;;;11.60;99.90;;;;;;6190088;22;94186;-81
2023/10/01 06:57:55;;;;;;;16.08;6.78;;;11.70;99.90;;;;;;6187681;22;92113;-81
2023/10/01 07:00:43;;;;;;;16.10;6.93;;;11.80;99.90;;;;;;6190534;22;93087;-81
2023/10/01 07:03:30;;;;;;;20.42;6.82;;;12.00;99.90;;;;;;6187142;22;93310;-81
2023/10/01 07:06:01;;;;;;;21.02;7.60;;;12.10;99.90;;;;;;6190629;22;93358;-80
2023/10/01 07:08:37;;;;;;;17.15;6.90;;;12.30;99.90;;;;;;6192985;22;92603;-82
2023/10/01 07:11:18;;;;;;;21.27;7.50;;;12.40;99.90;;;;;;6192787;22;92196;-81
2023/10/01 07:13:44;;;;;;;19.48;7.40;;;12.60;99.90;;;;;;6194400;22;95370;-81
2023/10/01 07:16:35;;;;;;;14.48;6.28;;;12.70;99.90;;;;;;6194608;22;92760;-81
2023/10/01 07:19:04;;;;;;;18.98;7.40;;;12.90;99.90;;;;;;6194423;22;91315;-81
2023/10/01 07:21:31;;;;;;;20.90;6.63;;;13.10;99.90;;;;;;6212968;22;92113;-76
2023/10/01 07:23:58;;;;;;;16.65;6.72;;;13.20;99.90;;;;;;6200994;22;96964;-77
2023/10/01 07:26:25;;;;;;;20.58;7.35;;;13.30;99.90;;;;;;6201378;22;97354;-76
2023/10/01 07:28:57;;;;;;;21.25;7.30;;;13.50;99.90;;;;;;6179411;22;92486;-77
2023/10/01 07:31:26;;;;;;;16.98;7.32;;;13.70;99.90;;;;;;6184951;22;92906;-81
2023/10/01 07:34:01;;;;;;;21.52;7.10;;;13.80;99.90;;;;;;6195662;22;92334;-82
2023/10/01 07:36:27;;;;;;;18.58;6.72;;;14.00;99.90;;;;;;6193659;22;96251;-80
2023/10/01 07:38:56;;;;;;;19.75;8.13;;;14.10;99.90;;;;;;6199004;22;92525;-82
2023/10/01 07:41:27;;;;;;;19.48;7.28;;;14.30;99.90;;;;;;6201973;22;93729;-82
2023/10/01 07:43:55;;;;;;;27.25;7.28;;;14.40;99.90;;;;;;6197851;22;93013;-83
2023/10/01 07:46:21;;;;;;;18.85;7.00;;;14.50;99.90;;;;;;6202052;22;93209;-83
2023/10/01 07:48:51;;;;;;;18.80;6.90;;;14.60;99.90;;;;;;6201568;22;92278;-82
2023/10/01 07:51:23;;;;;;;14.77;6.88;;;14.80;99.90;;;;;;6196630;22;93234;-79
2023/10/01 07:53:53;;;;;;;16.60;6.68;;;14.90;99.90;;;;;;6232247;22;95600;-79
2023/10/01 07:56:34;;;;;;;;;;;;;;;;;;;;;
2023/10/01 08:02:28;;;;;;;17.15;6.63;;;15.30;99.90;;;;;;6110950;22;92182;-79
2023/10/01 08:05:28;;;;;;;17.17;7.00;;;15.50;99.90;;;;;;6173707;22;95707;-79
2023/10/01 08:16:13;;;;;;;18.17;6.85;;;15.90;99.90;;;;;;5929814;23;95027;-77
2023/10/01 08:25:43;;;;;;;21.00;8.07;;;16.50;99.90;;;;;;5537941;22;10605855;-93
2023/10/01 08:28:43;;;;;;;18.63;7.07;;;16.70;99.90;;;;;;6149548;22;92931;-94
2023/10/01 08:31:43;;;;;;;15.73;7.00;;;16.80;99.90;;;;;;6150064;22;92340;-93
2023/10/01 08:33:51;;;;;;;18.60;7.40;;;17.00;99.90;;;;;;6150787;22;93379;-94
2023/10/01 08:36:24;;;;;;;20.08;7.68;;;17.10;99.90;;;;;;6148528;22;93766;-93
2023/10/01 08:39:20;;;;;;;20.25;8.25;;;17.30;99.90;;;;;;6150931;22;92625;-94
2023/10/01 08:41:52;;;;;;;18.88;7.45;;;17.40;99.90;;;;;;6152363;22;91332;-94
2023/10/01 08:44:30;;;;;;;19.45;7.70;;;17.60;99.90;;;;;;6149005;22;98498;-95
2023/10/01 08:47:21;;;;;;;17.98;7.45;;;17.70;99.90;;;;;;6149138;22;94181;-96
2023/10/01 08:49:49;;;;;;;21.30;7.55;;;17.80;99.90;;;;;;6149551;22;94728;-94
2023/10/01 08:52:21;;;;;;;20.55;7.97;;;18.00;99.90;;;;;;6152725;22;92179;-94
2023/10/01 08:54:59;;;;;;;18.80;7.40;;;18.10;99.90;;;;;;6159648;22;94035;-94
2023/10/01 08:57:36;;;;;;;21.13;7.72;;;18.20;99.90;;;;;;6157187;22;92472;-93
2023/10/01 09:00:17;;;;;;;19.40;7.93;;;18.30;99.90;;;;;;6154826;22;92032;-92
2023/10/01 09:02:50;;;;;;;19.73;8.70;;;18.40;99.90;;;;;;6149287;22;92257;-93
2023/10/01 09:05:25;;;;;;;20.70;8.18;;;18.60;99.90;;;;;;6149978;22;95406;-92
2023/10/01 09:08:15;;;;;;;17.50;7.22;;;18.70;99.90;;;;;;6149555;22;94889;-92
2023/10/01 09:10:53;;;;;;;17.67;7.40;;;18.80;99.90;;;;;;6148819;22;92662;-91
2023/10/01 09:13:22;;;;;;;18.27;7.97;;;19.00;99.10;;;;;;6150642;22;92243;-95
2023/10/01 09:15:55;;;;;;;19.83;7.68;;;19.00;99.70;;;;;;6153139;22;93945;-91
2023/10/01 09:18:25;;;;;;;16.70;7.28;;;19.20;99.40;;;;;;6157830;22;95988;-92
2023/10/01 09:21:09;;;;;;;20.70;7.78;;;19.30;99.90;;;;;;6162132;22;92199;-94
2023/10/01 09:23:58;;;;;;;17.23;7.68;;;19.40;99.90;;;;;;6161916;22;92587;-93
2023/10/01 09:26:41;;;;;;;16.33;7.03;;;19.50;99.40;;;;;;6162067;22;99395;-90
2023/10/01 09:29:32;;;;;;;18.33;7.45;;;19.60;98.90;;;;;;6159111;22;95202;-91
2023/10/01 09:32:01;;;;;;;16.58;7.30;;;19.80;99.20;;;;;;6160858;22;92711;-91
2023/10/01 09:34:33;;;;;;;17.70;7.20;;;19.90;98.40;;;;;;6159008;22;91636;-90
2023/10/01 09:43:04;;;;;;;19.20;7.63;;;20.30;98.10;;;;;;6096278;23;93752;-90
2023/10/01 09:45:37;;;;;;;17.05;7.40;;;20.40;97.80;;;;;;6082588;23;92743;-92
2023/10/01 09:48:10;;;;;;;;;;;20.60;99.40;;;;;;6124631;22;95514;-90
2023/10/01 09:50:41;;;;;;;18.73;7.60;;;20.70;97.00;;;;;;6104526;22;93191;-91
2023/10/01 09:53:18;;;;;;;23.02;7.70;;;20.80;97.70;;;;;;6185103;22;92254;-92
2023/10/01 09:55:55;;;;;;;15.43;7.13;;;21.00;98.00;;;;;;6184449;22;92225;-90
2023/10/01 09:58:28;;;;;;;15.63;6.45;;;21.10;98.10;;;;;;6185252;22;94454;-90
2023/10/01 10:01:08;;;;;;;17.73;7.30;;;21.20;96.70;;;;;;6189393;22;95141;-89
2023/10/01 10:03:38;;;;;;;18.73;8.02;;;21.40;96.60;;;;;;6186600;22;92648;-89
2023/10/01 10:06:08;;;;;;;16.65;7.22;;;21.50;96.40;;;;;;6161819;22;91998;-90
2023/10/01 10:08:35;;;;;;;16.15;6.95;;;21.60;96.10;;;;;;6181611;22;95585;-91
2023/10/01 10:11:05;;;;;;;17.70;7.38;;;21.70;95.90;;;;;;6179217;22;96075;-92
2023/10/01 10:13:36;;;;;;;18.75;7.30;;;21.80;95.90;;;;;;6178647;22;92546;-94
2023/10/01 10:16:28;;;;;;;21.67;7.30;;;21.80;95.00;;;;;;6180177;22;92516;-91
2023/10/01 10:19:13;;;;;;;16.25;6.93;;;21.90;95.20;;;;;;6178904;22;93023;-91
2023/10/01 10:24:48;;;;;;;19.33;7.72;;;22.20;95.70;;;;;;6149773;22;92875;-92
2023/10/01 10:27:33;;;;;;;;;;;22.30;95.50;;;;;;6180506;22;91752;-89
2023/10/01 10:30:01;;;;;;;14.77;6.35;;;22.40;94.30;;;;;;6180258;22;94616;-94
2023/10/01 10:32:31;;;;;;;15.65;7.18;;;22.50;94.00;;;;;;6181220;22;95437;-91
2023/10/01 10:35:03;;;;;;;16.42;7.22;;;22.60;93.90;;;;;;6179222;22;93350;-88
2023/10/01 10:37:38;;;;;;;17.30;6.53;;;22.70;93.50;;;;;;6183806;22;92226;-94
2023/10/01 10:43:16;;;;;;;16.65;6.88;;;22.80;94.00;;;;;;6171593;22;92470;-89
2023/10/01 10:46:09;;;;;;;19.40;7.70;;;22.90;94.20;;;;;;6180498;22;92267;-93
2023/10/01 10:48:59;;;;;;;15.43;6.47;;;23.10;92.80;;;;;;6196619;22;92034;-93
2023/10/01 10:51:46;;;;;;;14.05;6.32;;;23.30;92.90;;;;;;6189098;22;93937;-95
2023/10/01 10:54:16;;;;;;;15.02;7.32;;;23.50;92.50;;;;;;6181764;22;93809;-93
2023/10/01 10:56:44;;;;;;;18.17;7.30;;;23.60;91.40;;;;;;6182278;22;91937;-93
2023/10/01 10:59:10;;;;;;;14.93;6.32;;;23.60;92.00;;;;;;6180188;22;93056;-91
2023/10/01 11:01:46;;;;;;;14.93;7.32;;;23.80;91.90;;;;;;6177765;22;95184;-92
2023/10/01 11:04:16;;;;;;;18.55;7.18;;;23.90;91.10;;;;;;6176424;22;94815;-91
2023/10/01 11:06:44;;;;;;;15.45;6.80;;;24.00;92.00;;;;;;6177765;22;92758;-91
2023/10/01 11:09:25;;;;;;;15.57;6.80;;;24.10;92.80;;;;;;6178027;22;92848;-91
2023/10/01 11:11:53;;;;;;;14.77;6.43;;;24.20;90.40;;;;;;6178626;22;94758;-92
2023/10/01 11:14:25;;;;;;;15.32;6.90;;;24.30;90.00;;;;;;6179844;22;95968;-92
2023/10/01 11:16:50;;;;;;;15.23;6.70;;;24.40;90.40;;;;;;6179310;22;92379;-91
2023/10/01 11:19:21;;;;;;;16.08;6.43;;;24.40;88.60;;;;;;6177616;22;91740;-91
2023/10/01 11:22:00;;;;;;;11.88;5.82;;;24.40;89.30;;;;;;6178033;22;95230;-91
2023/10/01 11:24:40;;;;;;;15.10;6.78;;;24.40;87.40;;;;;;6180078;22;94091;-89
2023/10/01 11:27:43;;;;;;;14.45;5.78;;;24.50;87.70;;;;;;6168108;22;93504;-93
2023/10/01 11:30:57;;;;;;;19.60;7.57;;;24.70;88.90;;;;;;6190165;22;92528;-94
2023/10/01 11:33:47;;;;;;;13.93;6.07;;;24.80;87.00;;;;;;6208796;22;96446;-94
2023/10/01 11:36:57;;;;;;;14.73;6.63;;;25.00;86.40;;;;;;6198716;22;93294;-93
2023/10/01 11:39:57;;;;;;;14.68;6.47;;;25.00;84.90;;;;;;6212216;22;92400;-93
2023/10/01 11:43:27;;;;;;;13.30;6.05;;;25.00;85.60;;;;;;6200909;22;92769;-94
2023/10/01 11:46:23;;;;;;;14.73;6.85;;;25.10;86.50;;;;;;6214246;22;92260;-94
2023/10/01 11:49:45;;;;;;;13.38;6.57;;;25.20;85.80;;;;;;6214254;22;91671;-92
2023/10/01 11:53:10;;;;;;;14.80;6.68;;;25.30;84.00;;;;;;6067590;23;91414;-94
2023/10/01 11:56:01;;;;;;;14.30;6.82;;;25.40;83.30;;;;;;6111989;22;91749;-94
2023/10/01 11:58:47;;;;;;;16.85;7.28;;;25.40;85.10;;;;;;6199640;22;94992;-74
2023/10/01 12:01:13;;;;;;;13.90;6.25;;;25.40;84.10;;;;;;6179011;22;93266;-73
2023/10/01 12:03:57;;;;;;;17.40;7.43;;;25.40;84.30;;;;;;6165832;22;92669;-73
2023/10/01 12:06:33;;;;;;;15.43;6.93;;;25.50;82.40;;;;;;6148438;22;92283;-72
2023/10/01 12:09:00;;;;;;;17.05;6.75;;;25.50;80.90;;;;;;6138728;22;97011;-73
2023/10/01 12:11:27;;;;;;;16.33;7.80;;;25.60;81.30;;;;;;6200853;22;93443;-74
2023/10/01 12:14:17;;;;;;;17.63;7.50;;;25.60;79.30;;;;;;6150582;22;92917;-73
2023/10/01 12:16:43;;;;;;;17.65;7.45;;;25.60;82.20;;;;;;6173093;22;91554;-72
2023/10/01 12:19:22;;;;;;;16.02;7.93;;;25.60;80.10;;;;;;6166499;22;93761;-73
2023/10/01 12:22:04;;;;;;;17.08;6.80;;;25.80;81.80;;;;;;6164765;22;96678;-72
2023/10/01 12:24:39;;;;;;;16.70;6.88;;;26.00;79.30;;;;;;6148241;22;93298;-73
2023/10/01 12:27:07;;;;;;;15.65;7.35;;;26.20;81.00;;;;;;6172641;22;92621;-73
2023/10/01 12:29:42;;;;;;;15.43;7.38;;;26.30;81.00;;;;;;6150401;22;93273;-73
2023/10/01 12:32:41;;;;;;;14.63;6.95;;;26.50;80.10;;;;;;6180143;22;93523;-73
2023/10/01 12:35:27;;;;;;;15.50;6.78;;;26.60;77.90;;;;;;6148100;22;92194;-73
2023/10/01 12:38:05;;;;;;;15.77;7.07;;;26.70;78.60;;;;;;6147824;22;92674;-74
2023/10/01 12:40:34;;;;;;;12.00;6.03;;;26.90;79.20;;;;;;6148148;22;96436;-73
2023/10/01 12:43:01;;;;;;;15.63;7.90;;;27.00;77.60;;;;;;6150691;22;94052;-75
2023/10/01 12:45:27;;;;;;;17.30;7.30;;;27.20;77.00;;;;;;6150213;22;92356;-73
2023/10/01 12:47:53;;;;;;;12.55;6.70;;;27.40;76.40;;;;;;6149593;22;92530;-73
2023/10/01 12:50:26;;;;;;;15.77;6.50;;;27.50;77.20;;;;;;6177890;22;97451;-73
2023/10/01 12:53:19;;;;;;;14.43;6.88;;;27.60;74.60;;;;;;6151132;22;96715;-73
2023/10/01 12:55:52;;;;;;;13.15;6.57;;;27.70;74.00;;;;;;6148717;22;92593;-73
2023/10/01 12:58:35;;;;;;;14.10;6.65;;;28.00;75.60;;;;;;6147335;22;92478;-73
2023/10/01 13:01:03;;;;;;;14.20;6.90;;;28.20;73.90;;;;;;6147551;22;92177;-74
2023/10/01 13:03:29;;;;;;;17.08;7.88;;;28.40;73.00;;;;;;6171682;22;95787;-73
2023/10/01 13:05:55;;;;;;;16.90;7.32;;;28.60;72.20;;;;;;6173197;22;92728;-74
2023/10/01 13:08:27;;;;;;;15.60;8.00;;;28.80;70.40;;;;;;6150130;22;91783;-76
2023/10/01 13:10:57;;;;;;;14.93;7.80;;;29.00;70.20;;;;;;6198985;22;96283;-76
2023/10/01 13:13:35;;;;;;;14.23;7.88;;;29.10;67.90;;;;;;6180174;22;93597;-76
2023/10/01 13:16:01;;;;;;;15.52;7.70;;;29.10;67.70;;;;;;6161844;22;93606;-77
2023/10/01 13:18:31;;;;;;;13.25;6.95;;;29.20;67.70;;;;;;6148899;22;92593;-76
2023/10/01 13:23:41;;;;;;;14.65;6.95;;;29.50;66.90;;;;;;6151046;22;93033;-76
2023/10/01 13:26:24;;;;;;;16.75;7.88;;;29.80;69.10;;;;;;6148950;22;92645;-77
2023/10/01 13:28:53;;;;;;;13.13;7.13;;;30.10;64.50;;;;;;6149701;22;92352;-78
2023/10/01 13:34:48;;;;;;;16.52;8.43;;;30.20;63.30;;;;;;6147103;22;92608;-77
2023/10/01 14:09:51;;;;;;;14.38;7.78;;;31.70;53.80;;;;;;6168110;22;93548;-77
2023/10/01 14:13:02;;;;;;;16.00;8.10;;;31.60;54.30;;;;;;6146864;22;93567;-78
2023/10/01 14:15:29;;;;;;;15.07;8.70;;;31.70;54.80;;;;;;6145628;22;96519;-77
2023/10/01 14:17:58;;;;;;;14.10;8.02;;;32.00;55.20;;;;;;6145725;22;96470;-77
2023/10/01 14:20:44;;;;;;;16.58;8.88;;;32.40;56.20;;;;;;6148050;22;92734;-76
2023/10/01 14:23:22;;;;;;;14.60;8.02;;;32.60;52.80;;;;;;6149033;22;92406;-78
2023/10/01 14:25:58;;;;;;;15.57;9.07;;;32.40;52.60;;;;;;6146598;22;94833;-77
2023/10/01 14:28:26;;;;;;;17.42;8.52;;;32.60;52.40;;;;;;6147162;22;94744;-77
2023/10/01 14:30:58;;;;;;;20.25;9.27;;;32.50;50.70;;;;;;6148334;22;92385;-78
2023/10/01 14:33:26;;;;;;;21.07;9.77;;;32.50;52.20;;;;;;6144785;22;92688;-77
2023/10/01 14:35:53;;;;;;;16.13;8.65;;;32.90;51.60;;;;;;6147469;22;93806;-76
2023/10/01 14:38:24;;;;;;;16.08;8.50;;;32.90;51.60;;;;;;6147688;22;95699;-74
2023/10/01 14:40:56;;;;;;;17.00;8.73;;;33.00;52.00;;;;;;6148419;22;92084;-75
2023/10/01 14:43:24;;;;;;;16.83;8.48;;;33.10;51.90;;;;;;6145619;22;92298;-75
2023/10/01 14:45:51;;;;;;;17.08;8.55;;;33.10;49.70;;;;;;6170411;22;96674;-75
2023/10/01 14:48:17;;;;;;;13.55;8.18;;;33.20;50.60;;;;;;6152512;22;92730;-75
2023/10/01 14:50:43;;;;;;;17.40;8.70;;;33.40;49.40;;;;;;6177598;22;92402;-75
2023/10/01 14:53:13;;;;;;;24.98;9.23;;;33.50;50.60;;;;;;6146225;22;92255;-71
2023/10/01 14:55:42;;;;;;;14.73;8.60;;;33.80;50.40;;;;;;6147747;22;93387;-73
2023/10/01 14:58:16;;;;;;;13.55;7.88;;;34.10;49.20;;;;;;6147512;22;93247;-78
2023/10/01 15:00:49;;;;;;;15.82;8.63;;;34.20;48.60;;;;;;6158396;22;93471;-74
2023/10/01 15:03:36;;;;;;;15.52;8.23;;;34.40;49.70;;;;;;6170379;22;92623;-74
2023/10/01 15:06:04;;;;;;;16.20;9.25;;;34.60;47.80;;;;;;6146141;22;96781;-79
2023/10/01 15:08:31;;;;;;;15.10;8.45;;;34.80;48.60;;;;;;6173310;22;96156;-77
2023/10/01 15:10:57;;;;;;;15.48;8.70;;;34.70;48.70;;;;;;6199791;22;92612;-77
2023/10/01 15:13:36;;;;;;;15.68;9.63;;;35.00;48.30;;;;;;6177574;22;92503;-81
2023/10/01 15:16:03;;;;;;;17.02;10.02;;;35.40;46.50;;;;;;6175924;22;93554;-78
2023/10/01 15:18:32;;;;;;;17.73;8.75;;;35.50;46.30;;;;;;6166092;22;96337;-73
2023/10/01 15:20:59;;;;;;;15.90;8.30;;;35.60;45.70;;;;;;6145832;22;92396;-75
2023/10/01 15:23:25;;;;;;;17.88;9.25;;;35.60;47.00;;;;;;6147584;22;92649;-72
2023/10/01 15:25:51;;;;;;;14.50;8.13;;;35.80;46.10;;;;;;6145604;22;93593;-75
2023/10/01 15:28:17;;;;;;;17.42;8.90;;;35.80;45.80;;;;;;6165753;22;94414;-73
2023/10/01 15:30:45;;;;;;;14.77;8.48;;;35.90;45.80;;;;;;6164130;22;93033;-74
2023/10/01 15:33:15;;;;;;;14.30;8.07;;;35.90;46.00;;;;;;6144583;22;92679;-74
2023/10/01 15:35:50;;;;;;;16.08;8.23;;;36.00;46.20;;;;;;6143526;22;93361;-74
2023/10/01 15:38:27;;;;;;;12.38;7.60;;;35.80;45.20;;;;;;6141538;22;100688;-76
2023/10/01 15:41:02;;;;;;;13.48;7.90;;;35.60;46.20;;;;;;6144446;22;92514;-73
2023/10/01 15:43:27;;;;;;;15.50;8.15;;;35.50;46.90;;;;;;6148092;22;92039;-74
2023/10/01 15:46:11;;;;;;;14.07;7.75;;;35.80;45.80;;;;;;6161534;22;93697;-74
2023/10/01 15:48:48;;;;;;;13.43;8.18;;;35.80;46.50;;;;;;6164099;22;92844;-72
2023/10/01 15:51:25;;;;;;;15.40;8.70;;;35.70;45.10;;;;;;6145632;22;94798;-72
2023/10/01 15:53:53;;;;;;;15.85;8.32;;;35.60;45.80;;;;;;6171904;22;92718;-71
2023/10/01 15:56:30;;;;;;;15.05;8.38;;;35.50;45.70;;;;;;6176556;22;95511;-72
2023/10/01 15:58:57;;;;;;;15.88;8.63;;;35.40;46.20;;;;;;6146223;22;95589;-75